Providence, Rhode Island
Traffic Map
Current Weather Conditions
Providence, Rhode Island
Few Clouds
Few Clouds
19°
Feels Like: 19°
Wind Chill: 19° Ceiling: Unl
Heat Index: 19° Visibility: 10mi
Dew Point: 13° Wind: 5mph
Humidity: 68% Direction: 340° (NNW)
Pressure: 30.14in Gusts: 0mph
Raw Report DataKPVD 281151Z 34004KT 10SM FEW250 19/13 A3014 RMK AO2 SLP207 T01890128 10189 20144 53013
Traffic Incident Summary
Active as of:
Severity:
Category:
InformationThere was an issue retrieving the traffic information for this location. Please try a different location or try again shortly.
Advertisements
Track Severe Weather on mobile